sensor_id;sensor_type;location;lat;lon;timestamp;pressure;altitude;pressure_sealevel;temperature;humidity
32131;BME280;18639;50.716;7.086;2023-12-20T00:00:02;100299.81;;;7.91;100.00
32131;BME280;18639;50.716;7.086;2023-12-20T00:02:28;100283.53;;;7.75;100.00
32131;BME280;18639;50.716;7.086;2023-12-20T00:04:53;100287.44;;;7.82;100.00
32131;BME280;18639;50.716;7.086;2023-12-20T00:07:18;100204.50;;;7.32;100.00
32131;BME280;18639;50.716;7.086;2023-12-20T00:09:44;100277.16;;;7.82;100.00
32131;BME280;18639;50.716;7.086;2023-12-20T00:12:09;100245.47;;;7.66;100.00
32131;BME280;18639;50.716;7.086;2023-12-20T00:14:34;100266.88;;;7.82;100.00
32131;BME280;18639;50.716;7.086;2023-12-20T00:17:00;100272.78;;;7.84;100.00
32131;BME280;18639;50.716;7.086;2023-12-20T00:19:25;100283.47;;;7.92;100.00
32131;BME280;18639;50.716;7.086;2023-12-20T00:21:50;100278.50;;;7.89;100.00
32131;BME280;18639;50.716;7.086;2023-12-20T00:24:16;100244.06;;;7.76;100.00
32131;BME280;18639;50.716;7.086;2023-12-20T00:26:41;100263.31;;;7.85;100.00
32131;BME280;18639;50.716;7.086;2023-12-20T00:29:06;100238.50;;;7.68;100.00
32131;BME280;18639;50.716;7.086;2023-12-20T00:31:32;100240.97;;;7.70;100.00
32131;BME280;18639;50.716;7.086;2023-12-20T00:33:57;100247.53;;;7.75;100.00
32131;BME280;18639;50.716;7.086;2023-12-20T00:36:22;100278.16;;;7.95;100.00
32131;BME280;18639;50.716;7.086;2023-12-20T00:38:47;100249.03;;;7.79;100.00
32131;BME280;18639;50.716;7.086;2023-12-20T00:41:13;100291.84;;;7.96;100.00
32131;BME280;18639;50.716;7.086;2023-12-20T00:43:38;100278.31;;;7.92;100.00
32131;BME280;18639;50.716;7.086;2023-12-20T00:46:03;100253.25;;;7.80;100.00
32131;BME280;18639;50.716;7.086;2023-12-20T00:48:29;100287.44;;;7.98;100.00
32131;BME280;18639;50.716;7.086;2023-12-20T00:50:56;100287.28;;;8.01;100.00
32131;BME280;18639;50.716;7.086;2023-12-20T00:53:21;100263.22;;;7.86;100.00
32131;BME280;18639;50.716;7.086;2023-12-20T00:55:47;100281.78;;;7.91;100.00
32131;BME280;18639;50.716;7.086;2023-12-20T00:58:12;100269.25;;;7.85;100.00
32131;BME280;18639;50.716;7.086;2023-12-20T01:00:37;100285.69;;;7.98;100.00
32131;BME280;18639;50.716;7.086;2023-12-20T01:03:03;100270.78;;;7.89;100.00
32131;BME280;18639;50.716;7.086;2023-12-20T01:05:28;100294.41;;;7.96;100.00
32131;BME280;18639;50.716;7.086;2023-12-20T01:07:53;100262.81;;;7.78;100.00
32131;BME280;18639;50.716;7.086;2023-12-20T01:10:19;100287.94;;;7.89;100.00
32131;BME280;18639;50.716;7.086;2023-12-20T01:12:44;100280.63;;;7.81;100.00
32131;BME280;18639;50.716;7.086;2023-12-20T01:15:09;100306.34;;;7.97;100.00
32131;BME280;18639;50.716;7.086;2023-12-20T01:17:35;100290.09;;;7.81;100.00
32131;BME280;18639;50.716;7.086;2023-12-20T01:20:01;100296.66;;;7.86;100.00
32131;BME280;18639;50.716;7.086;2023-12-20T01:22:26;100318.00;;;7.88;100.00
32131;BME280;18639;50.716;7.086;2023-12-20T01:24:51;100289.44;;;7.77;100.00
32131;BME280;18639;50.716;7.086;2023-12-20T01:27:16;100307.84;;;7.85;100.00
32131;BME280;18639;50.716;7.086;2023-12-20T01:29:42;100301.66;;;7.89;100.00
32131;BME280;18639;50.716;7.086;2023-12-20T01:32:07;100296.41;;;7.75;100.00
32131;BME280;18639;50.716;7.086;2023-12-20T01:34:32;100274.34;;;7.71;100.00
32131;BME280;18639;50.716;7.086;2023-12-20T01:36:58;100294.06;;;7.86;100.00
32131;BME280;18639;50.716;7.086;2023-12-20T01:39:23;100302.03;;;7.82;100.00
32131;BME280;18639;50.716;7.086;2023-12-20T01:41:48;100292.78;;;7.79;100.00
32131;BME280;18639;50.716;7.086;2023-12-20T01:44:13;100282.22;;;7.68;100.00
32131;BME280;18639;50.716;7.086;2023-12-20T01:46:39;100306.59;;;7.77;100.00
32131;BME280;18639;50.716;7.086;2023-12-20T01:49:04;100338.66;;;7.87;100.00
32131;BME280;18639;50.716;7.086;2023-12-20T01:51:30;100321.78;;;7.81;100.00
32131;BME280;18639;50.716;7.086;2023-12-20T01:53:57;100331.84;;;7.86;100.00
32131;BME280;18639;50.716;7.086;2023-12-20T01:56:23;100311.69;;;7.78;100.00
32131;BME280;18639;50.716;7.086;2023-12-20T01:58:48;100318.63;;;7.76;100.00
32131;BME280;18639;50.716;7.086;2023-12-20T02:01:14;100341.97;;;7.89;100.00
32131;BME280;18639;50.716;7.086;2023-12-20T02:03:43;100343.28;;;7.80;100.00
32131;BME280;18639;50.716;7.086;2023-12-20T02:06:09;100349.19;;;7.82;100.00
32131;BME280;18639;50.716;7.086;2023-12-20T02:08:35;100353.34;;;7.85;100.00
32131;BME280;18639;50.716;7.086;2023-12-20T02:11:01;100348.34;;;7.82;100.00
32131;BME280;18639;50.716;7.086;2023-12-20T02:13:26;100322.28;;;7.56;100.00
32131;BME280;18639;50.716;7.086;2023-12-20T02:15:52;100332.81;;;7.52;100.00
32131;BME280;18639;50.716;7.086;2023-12-20T02:18:17;100333.16;;;7.61;100.00
32131;BME280;18639;50.716;7.086;2023-12-20T02:20:42;100344.66;;;7.54;100.00
32131;BME280;18639;50.716;7.086;2023-12-20T02:23:08;100352.69;;;7.48;100.00
32131;BME280;18639;50.716;7.086;2023-12-20T02:25:33;100366.69;;;7.43;100.00
32131;BME280;18639;50.716;7.086;2023-12-20T02:27:58;100393.16;;;7.45;100.00
32131;BME280;18639;50.716;7.086;2023-12-20T02:30:24;100381.56;;;7.21;100.00
32131;BME280;18639;50.716;7.086;2023-12-20T02:32:50;100402.78;;;7.24;100.00
32131;BME280;18639;50.716;7.086;2023-12-20T02:35:16;100375.66;;;7.01;100.00
32131;BME280;18639;50.716;7.086;2023-12-20T02:37:41;100398.47;;;7.07;100.00
32131;BME280;18639;50.716;7.086;2023-12-20T02:40:07;100365.22;;;6.70;100.00
32131;BME280;18639;50.716;7.086;2023-12-20T02:42:33;100393.38;;;6.71;100.00
32131;BME280;18639;50.716;7.086;2023-12-20T02:44:58;100378.63;;;6.58;100.00
32131;BME280;18639;50.716;7.086;2023-12-20T02:47:23;100402.44;;;6.61;100.00
32131;BME280;18639;50.716;7.086;2023-12-20T02:49:49;100409.38;;;6.59;100.00
32131;BME280;18639;50.716;7.086;2023-12-20T02:52:14;100405.75;;;6.63;100.00
32131;BME280;18639;50.716;7.086;2023-12-20T02:54:39;100403.69;;;6.53;100.00
32131;BME280;18639;50.716;7.086;2023-12-20T02:57:05;100391.50;;;6.39;100.00
32131;BME280;18639;50.716;7.086;2023-12-20T02:59:30;100420.13;;;6.49;100.00
32131;BME280;18639;50.716;7.086;2023-12-20T03:01:55;100431.69;;;6.57;100.00
32131;BME280;18639;50.716;7.086;2023-12-20T03:04:20;100416.06;;;6.45;100.00
32131;BME280;18639;50.716;7.086;2023-12-20T03:06:46;100414.22;;;6.47;100.00
32131;BME280;18639;50.716;7.086;2023-12-20T03:09:11;100426.72;;;6.54;100.00
32131;BME280;18639;50.716;7.086;2023-12-20T03:11:36;100420.41;;;6.43;100.00
32131;BME280;18639;50.716;7.086;2023-12-20T03:14:02;100403.00;;;6.30;100.00
32131;BME280;18639;50.716;7.086;2023-12-20T03:16:27;100411.34;;;6.36;100.00
32131;BME280;18639;50.716;7.086;2023-12-20T03:18:52;100418.75;;;6.42;100.00
32131;BME280;18639;50.716;7.086;2023-12-20T03:21:17;100381.25;;;6.20;100.00
32131;BME280;18639;50.716;7.086;2023-12-20T03:23:43;100433.88;;;6.48;100.00
32131;BME280;18639;50.716;7.086;2023-12-20T03:26:09;100440.50;;;6.52;100.00
32131;BME280;18639;50.716;7.086;2023-12-20T03:28:38;100436.31;;;6.51;100.00
32131;BME280;18639;50.716;7.086;2023-12-20T03:31:03;100426.31;;;6.45;100.00
32131;BME280;18639;50.716;7.086;2023-12-20T03:33:29;100427.84;;;6.49;100.00
32131;BME280;18639;50.716;7.086;2023-12-20T03:35:55;100411.59;;;6.48;100.00
32131;BME280;18639;50.716;7.086;2023-12-20T03:38:20;100410.47;;;6.54;100.00
32131;BME280;18639;50.716;7.086;2023-12-20T03:40:46;100387.81;;;6.45;100.00
32131;BME280;18639;50.716;7.086;2023-12-20T03:43:11;100420.84;;;6.69;100.00
32131;BME280;18639;50.716;7.086;2023-12-20T03:45:36;100421.03;;;6.66;100.00
32131;BME280;18639;50.716;7.086;2023-12-20T03:48:02;100398.47;;;6.54;100.00
32131;BME280;18639;50.716;7.086;2023-12-20T03:50:27;100421.91;;;6.65;100.00
32131;BME280;18639;50.716;7.086;2023-12-20T03:52:52;100397.66;;;6.54;100.00
32131;BME280;18639;50.716;7.086;2023-12-20T03:55:18;100424.19;;;6.71;100.00
32131;BME280;18639;50.716;7.086;2023-12-20T03:57:43;100395.97;;;6.53;100.00
32131;BME280;18639;50.716;7.086;2023-12-20T04:00:09;100430.00;;;6.75;100.00
32131;BME280;18639;50.716;7.086;2023-12-20T04:02:39;100409.25;;;6.62;100.00
32131;BME280;18639;50.716;7.086;2023-12-20T04:05:05;100432.44;;;6.78;100.00
32131;BME280;18639;50.716;7.086;2023-12-20T04:07:30;100416.72;;;6.67;100.00
32131;BME280;18639;50.716;7.086;2023-12-20T04:09:56;100420.78;;;6.71;100.00
32131;BME280;18639;50.716;7.086;2023-12-20T04:12:21;100399.72;;;6.64;100.00
32131;BME280;18639;50.716;7.086;2023-12-20T04:14:46;100431.47;;;6.81;100.00
32131;BME280;18639;50.716;7.086;2023-12-20T04:17:11;100439.16;;;6.81;100.00
32131;BME280;18639;50.716;7.086;2023-12-20T04:19:37;100397.31;;;6.61;100.00
32131;BME280;18639;50.716;7.086;2023-12-20T04:22:02;100409.75;;;6.69;100.00
32131;BME280;18639;50.716;7.086;2023-12-20T04:24:27;100399.94;;;6.60;100.00
32131;BME280;18639;50.716;7.086;2023-12-20T04:26:53;100420.03;;;6.69;100.00
32131;BME280;18639;50.716;7.086;2023-12-20T04:29:18;100410.53;;;6.71;100.00
32131;BME280;18639;50.716;7.086;2023-12-20T04:31:43;100410.47;;;6.72;100.00
32131;BME280;18639;50.716;7.086;2023-12-20T04:34:08;100406.28;;;6.70;100.00
32131;BME280;18639;50.716;7.086;2023-12-20T04:36:34;100384.69;;;6.57;100.00
32131;BME280;18639;50.716;7.086;2023-12-20T04:38:59;100405.16;;;6.75;100.00
32131;BME280;18639;50.716;7.086;2023-12-20T04:41:25;100384.25;;;6.47;100.00
32131;BME280;18639;50.716;7.086;2023-12-20T04:43:50;100357.16;;;6.42;100.00
32131;BME280;18639;50.716;7.086;2023-12-20T04:46:15;100405.47;;;6.69;100.00
32131;BME280;18639;50.716;7.086;2023-12-20T04:48:40;100402.94;;;6.68;100.00
32131;BME280;18639;50.716;7.086;2023-12-20T04:51:06;100430.56;;;6.82;100.00
32131;BME280;18639;50.716;7.086;2023-12-20T04:53:31;100399.03;;;6.61;100.00
32131;BME280;18639;50.716;7.086;2023-12-20T04:55:56;100416.72;;;6.67;100.00
32131;BME280;18639;50.716;7.086;2023-12-20T04:58:21;100443.34;;;6.83;100.00
32131;BME280;18639;50.716;7.086;2023-12-20T05:00:47;100455.41;;;6.81;100.00
32131;BME280;18639;50.716;7.086;2023-12-20T05:03:12;100435.03;;;6.78;100.00
32131;BME280;18639;50.716;7.086;2023-12-20T05:05:37;100432.59;;;6.75;100.00
32131;BME280;18639;50.716;7.086;2023-12-20T05:08:03;100416.72;;;6.67;100.00
32131;BME280;18639;50.716;7.086;2023-12-20T05:10:29;100427.66;;;6.70;100.00
32131;BME280;18639;50.716;7.086;2023-12-20T05:12:54;100403.63;;;6.54;100.00
32131;BME280;18639;50.716;7.086;2023-12-20T05:15:19;100447.94;;;6.76;100.00
32131;BME280;18639;50.716;7.086;2023-12-20T05:17:45;100402.31;;;6.46;100.00
32131;BME280;18639;50.716;7.086;2023-12-20T05:20:10;100427.69;;;6.52;100.00
32131;BME280;18639;50.716;7.086;2023-12-20T05:22:35;100447.94;;;6.58;100.00
32131;BME280;18639;50.716;7.086;2023-12-20T05:25:01;100398.59;;;6.15;100.00
32131;BME280;18639;50.716;7.086;2023-12-20T05:27:26;100439.91;;;6.47;100.00
32131;BME280;18639;50.716;7.086;2023-12-20T05:29:51;100409.69;;;6.34;100.00
32131;BME280;18639;50.716;7.086;2023-12-20T05:32:16;100394.78;;;6.24;100.00
32131;BME280;18639;50.716;7.086;2023-12-20T05:34:42;100388.88;;;6.22;100.00
32131;BME280;18639;50.716;7.086;2023-12-20T05:37:07;100408.28;;;6.27;100.00
32131;BME280;18639;50.716;7.086;2023-12-20T05:39:32;100425.16;;;6.33;100.00
32131;BME280;18639;50.716;7.086;2023-12-20T05:41:57;100394.28;;;6.16;100.00
32131;BME280;18639;50.716;7.086;2023-12-20T05:44:23;100410.72;;;6.30;100.00
32131;BME280;18639;50.716;7.086;2023-12-20T05:46:48;100414.09;;;6.31;100.00
32131;BME280;18639;50.716;7.086;2023-12-20T05:49:13;100403.59;;;6.18;100.00
32131;BME280;18639;50.716;7.086;2023-12-20T05:51:39;100432.84;;;6.33;100.00
32131;BME280;18639;50.716;7.086;2023-12-20T05:54:04;100408.50;;;6.04;100.00
32131;BME280;18639;50.716;7.086;2023-12-20T05:56:29;100422.22;;;6.22;100.00
32131;BME280;18639;50.716;7.086;2023-12-20T05:58:55;100415.66;;;6.16;100.00
32131;BME280;18639;50.716;7.086;2023-12-20T06:01:20;100428.53;;;6.33;100.00
32131;BME280;18639;50.716;7.086;2023-12-20T06:03:45;100417.03;;;6.23;100.00
32131;BME280;18639;50.716;7.086;2023-12-20T06:06:11;100426.47;;;6.23;100.00
32131;BME280;18639;50.716;7.086;2023-12-20T06:08:37;100410.47;;;6.18;100.00
32131;BME280;18639;50.716;7.086;2023-12-20T06:11:03;100407.13;;;6.16;100.00
32131;BME280;18639;50.716;7.086;2023-12-20T06:13:28;100411.19;;;6.20;100.00
32131;BME280;18639;50.716;7.086;2023-12-20T06:15:54;100436.31;;;6.32;100.00
32131;BME280;18639;50.716;7.086;2023-12-20T06:18:20;100444.63;;;6.37;100.00
32131;BME280;18639;50.716;7.086;2023-12-20T06:20:45;100456.50;;;6.40;100.00
32131;BME280;18639;50.716;7.086;2023-12-20T06:23:10;100440.59;;;6.31;100.00
32131;BME280;18639;50.716;7.086;2023-12-20T06:25:35;100432.50;;;6.22;100.00
32131;BME280;18639;50.716;7.086;2023-12-20T06:28:01;100401.84;;;6.00;100.00
32131;BME280;18639;50.716;7.086;2023-12-20T06:30:26;100444.78;;;6.34;100.00
32131;BME280;18639;50.716;7.086;2023-12-20T06:32:53;100404.63;;;6.14;100.00
32131;BME280;18639;50.716;7.086;2023-12-20T06:35:18;100437.91;;;6.34;100.00
32131;BME280;18639;50.716;7.086;2023-12-20T06:37:44;100453.50;;;6.49;100.00
32131;BME280;18639;50.716;7.086;2023-12-20T06:40:10;100426.09;;;6.30;100.00
32131;BME280;18639;50.716;7.086;2023-12-20T06:42:35;100426.81;;;6.34;100.00
32131;BME280;18639;50.716;7.086;2023-12-20T06:45:01;100430.06;;;6.38;100.00
32131;BME280;18639;50.716;7.086;2023-12-20T06:47:26;100444.34;;;6.43;100.00
32131;BME280;18639;50.716;7.086;2023-12-20T06:49:52;100444.13;;;6.48;100.00
32131;BME280;18639;50.716;7.086;2023-12-20T06:52:17;100449.88;;;6.53;100.00
32131;BME280;18639;50.716;7.086;2023-12-20T06:54:42;100451.22;;;6.61;100.00
32131;BME280;18639;50.716;7.086;2023-12-20T06:57:07;100437.81;;;6.55;100.00
32131;BME280;18639;50.716;7.086;2023-12-20T06:59:38;100434.63;;;6.50;100.00
32131;BME280;18639;50.716;7.086;2023-12-20T07:02:03;100447.81;;;6.61;100.00
32131;BME280;18639;50.716;7.086;2023-12-20T07:04:30;100459.44;;;6.68;100.00
32131;BME280;18639;50.716;7.086;2023-12-20T07:06:55;100460.50;;;6.64;100.00
32131;BME280;18639;50.716;7.086;2023-12-20T07:09:22;100364.63;;;6.10;100.00
32131;BME280;18639;50.716;7.086;2023-12-20T07:11:48;100467.91;;;6.70;100.00
32131;BME280;18639;50.716;7.086;2023-12-20T07:14:14;100471.25;;;6.72;100.00
32131;BME280;18639;50.716;7.086;2023-12-20T07:16:39;100470.03;;;6.62;100.00
32131;BME280;18639;50.716;7.086;2023-12-20T07:19:05;100470.84;;;6.62;100.00
32131;BME280;18639;50.716;7.086;2023-12-20T07:21:31;100478.19;;;6.70;100.00
32131;BME280;18639;50.716;7.086;2023-12-20T07:23:56;100458.19;;;6.58;100.00
32131;BME280;18639;50.716;7.086;2023-12-20T07:26:21;100468.06;;;6.67;100.00
32131;BME280;18639;50.716;7.086;2023-12-20T07:28:47;100426.88;;;6.32;100.00
32131;BME280;18639;50.716;7.086;2023-12-20T07:31:12;100461.53;;;6.60;100.00
32131;BME280;18639;50.716;7.086;2023-12-20T07:33:37;100480.75;;;6.70;100.00
32131;BME280;18639;50.716;7.086;2023-12-20T07:36:06;100470.69;;;6.65;100.00
32131;BME280;18639;50.716;7.086;2023-12-20T07:38:32;100437.94;;;6.52;100.00
32131;BME280;18639;50.716;7.086;2023-12-20T07:40:57;100423.13;;;6.40;100.00
32131;BME280;18639;50.716;7.086;2023-12-20T07:43:22;100464.31;;;6.55;100.00
32131;BME280;18639;50.716;7.086;2023-12-20T07:45:47;100484.84;;;6.74;100.00
32131;BME280;18639;50.716;7.086;2023-12-20T07:48:13;100417.38;;;6.34;100.00
32131;BME280;18639;50.716;7.086;2023-12-20T07:50:38;100473.88;;;6.70;100.00
32131;BME280;18639;50.716;7.086;2023-12-20T07:53:03;100440.06;;;6.44;100.00
32131;BME280;18639;50.716;7.086;2023-12-20T07:55:29;100434.84;;;6.45;100.00
32131;BME280;18639;50.716;7.086;2023-12-20T07:57:55;100472.16;;;6.71;100.00
32131;BME280;18639;50.716;7.086;2023-12-20T08:00:20;100472.75;;;6.76;100.00
32131;BME280;18639;50.716;7.086;2023-12-20T08:02:46;100434.19;;;6.59;100.00
32131;BME280;18639;50.716;7.086;2023-12-20T08:05:11;100476.09;;;6.78;100.00
32131;BME280;18639;50.716;7.086;2023-12-20T08:07:36;100479.41;;;6.80;100.00
32131;BME280;18639;50.716;7.086;2023-12-20T08:10:02;100462.22;;;6.63;100.00
32131;BME280;18639;50.716;7.086;2023-12-20T08:12:27;100479.41;;;6.80;100.00
32131;BME280;18639;50.716;7.086;2023-12-20T08:14:53;100495.53;;;6.84;100.00
32131;BME280;18639;50.716;7.086;2023-12-20T08:17:19;100473.53;;;6.78;100.00
32131;BME280;18639;50.716;7.086;2023-12-20T08:19:44;100491.53;;;6.95;100.00
32131;BME280;18639;50.716;7.086;2023-12-20T08:22:09;100488.91;;;6.97;100.00
32131;BME280;18639;50.716;7.086;2023-12-20T08:24:35;100464.84;;;6.81;100.00
32131;BME280;18639;50.716;7.086;2023-12-20T08:27:00;100494.59;;;7.03;100.00
32131;BME280;18639;50.716;7.086;2023-12-20T08:29:25;100465.53;;;6.84;100.00
32131;BME280;18639;50.716;7.086;2023-12-20T08:31:55;100465.41;;;6.87;100.00
32131;BME280;18639;50.716;7.086;2023-12-20T08:34:20;100475.50;;;6.90;100.00
32131;BME280;18639;50.716;7.086;2023-12-20T08:36:45;100498.66;;;7.07;100.00
32131;BME280;18639;50.716;7.086;2023-12-20T08:39:11;100474.53;;;6.93;100.00
32131;BME280;18639;50.716;7.086;2023-12-20T08:41:36;100502.00;;;7.09;100.00
32131;BME280;18639;50.716;7.086;2023-12-20T08:44:02;100493.31;;;7.12;100.00
32131;BME280;18639;50.716;7.086;2023-12-20T08:46:27;100475.59;;;7.06;100.00
32131;BME280;18639;50.716;7.086;2023-12-20T08:48:52;100472.00;;;7.10;100.00
32131;BME280;18639;50.716;7.086;2023-12-20T08:51:18;100478.06;;;7.26;100.00
32131;BME280;18639;50.716;7.086;2023-12-20T08:53:44;100413.88;;;6.90;100.00
32131;BME280;18639;50.716;7.086;2023-12-20T08:56:10;100478.59;;;7.33;100.00
32131;BME280;18639;50.716;7.086;2023-12-20T08:58:35;100466.50;;;7.35;100.00
32131;BME280;18639;50.716;7.086;2023-12-20T09:01:01;100453.88;;;7.30;100.00
32131;BME280;18639;50.716;7.086;2023-12-20T09:03:26;100484.03;;;7.61;100.00
32131;BME280;18639;50.716;7.086;2023-12-20T09:05:51;100464.97;;;7.65;100.00
32131;BME280;18639;50.716;7.086;2023-12-20T09:08:17;100484.91;;;7.77;100.00
32131;BME280;18639;50.716;7.086;2023-12-20T09:10:42;100497.47;;;7.83;100.00
32131;BME280;18639;50.716;7.086;2023-12-20T09:13:07;100490.44;;;7.87;100.00
32131;BME280;18639;50.716;7.086;2023-12-20T09:15:32;100485.75;;;7.78;100.00
32131;BME280;18639;50.716;7.086;2023-12-20T09:17:59;100478.09;;;7.76;100.00
32131;BME280;18639;50.716;7.086;2023-12-20T09:20:24;100486.13;;;7.87;100.00
32131;BME280;18639;50.716;7.086;2023-12-20T09:22:50;100485.53;;;7.82;100.00
32131;BME280;18639;50.716;7.086;2023-12-20T09:25:15;100495.97;;;7.79;100.00
32131;BME280;18639;50.716;7.086;2023-12-20T09:27:42;100499.59;;;7.75;100.00
32131;BME280;18639;50.716;7.086;2023-12-20T09:30:08;100505.66;;;7.74;100.00
32131;BME280;18639;50.716;7.086;2023-12-20T09:32:33;100474.34;;;7.49;100.00
32131;BME280;18639;50.716;7.086;2023-12-20T09:34:59;100419.31;;;7.18;100.00
32131;BME280;18639;50.716;7.086;2023-12-20T09:37:26;100468.22;;;7.51;100.00
32131;BME280;18639;50.716;7.086;2023-12-20T09:39:52;100488.88;;;7.67;100.00
32131;BME280;18639;50.716;7.086;2023-12-20T09:42:24;100510.41;;;7.65;100.00
32131;BME280;18639;50.716;7.086;2023-12-20T09:44:53;100486.84;;;7.56;100.00
32131;BME280;18639;50.716;7.086;2023-12-20T09:47:20;100476.72;;;7.36;100.00
32131;BME280;18639;50.716;7.086;2023-12-20T09:49:48;100484.13;;;7.42;100.00
32131;BME280;18639;50.716;7.086;2023-12-20T09:52:14;100480.91;;;7.37;100.00
32131;BME280;18639;50.716;7.086;2023-12-20T09:54:41;100473.13;;;7.39;100.00
32131;BME280;18639;50.716;7.086;2023-12-20T09:57:09;100505.28;;;7.47;100.00
32131;BME280;18639;50.716;7.086;2023-12-20T09:59:34;100491.91;;;7.41;100.00
32131;BME280;18639;50.716;7.086;2023-12-20T10:02:01;100509.38;;;7.51;100.00
32131;BME280;18639;50.716;7.086;2023-12-20T10:04:31;100495.09;;;7.46;100.00
32131;BME280;18639;50.716;7.086;2023-12-20T10:07:02;100489.09;;;7.45;100.00
32131;BME280;18639;50.716;7.086;2023-12-20T10:09:31;100468.31;;;7.33;100.00
32131;BME280;18639;50.716;7.086;2023-12-20T10:11:57;100491.69;;;7.45;100.00
32131;BME280;18639;50.716;7.086;2023-12-20T10:14:23;100468.31;;;7.33;100.00
32131;BME280;18639;50.716;7.086;2023-12-20T10:16:49;100469.97;;;7.34;100.00
32131;BME280;18639;50.716;7.086;2023-12-20T10:19:16;100492.50;;;7.46;100.00
32131;BME280;18639;50.716;7.086;2023-12-20T10:21:42;100470.50;;;7.40;100.00
32131;BME280;18639;50.716;7.086;2023-12-20T10:24:08;100479.78;;;7.43;100.00
32131;BME280;18639;50.716;7.086;2023-12-20T10:26:33;100442.59;;;7.33;100.00
32131;BME280;18639;50.716;7.086;2023-12-20T10:29:02;100415.50;;;7.10;100.00
32131;BME280;18639;50.716;7.086;2023-12-20T10:31:30;100440.97;;;7.32;100.00
32131;BME280;18639;50.716;7.086;2023-12-20T10:33:57;100451.22;;;7.49;100.00
32131;BME280;18639;50.716;7.086;2023-12-20T10:36:25;100429.06;;;7.46;100.00
32131;BME280;18639;50.716;7.086;2023-12-20T10:38:52;100461.41;;;7.68;100.00
32131;BME280;18639;50.716;7.086;2023-12-20T10:41:24;100450.13;;;7.70;100.00
32131;BME280;18639;50.716;7.086;2023-12-20T10:43:51;100427.28;;;7.64;100.00
32131;BME280;18639;50.716;7.086;2023-12-20T10:46:17;100435.97;;;7.79;100.00
32131;BME280;18639;50.716;7.086;2023-12-20T10:48:45;100405.81;;;7.65;100.00
32131;BME280;18639;50.716;7.086;2023-12-20T10:51:13;100448.44;;;7.86;100.00
32131;BME280;18639;50.716;7.086;2023-12-20T10:53:40;100437.69;;;7.95;100.00
32131;BME280;18639;50.716;7.086;2023-12-20T10:56:06;100426.69;;;7.92;100.00
32131;BME280;18639;50.716;7.086;2023-12-20T10:58:33;100430.59;;;7.83;100.00
32131;BME280;18639;50.716;7.086;2023-12-20T11:01:01;100418.91;;;7.93;100.00
32131;BME280;18639;50.716;7.086;2023-12-20T11:03:32;100417.56;;;7.86;100.00
32131;BME280;18639;50.716;7.086;2023-12-20T11:06:03;100383.50;;;7.66;100.00
32131;BME280;18639;50.716;7.086;2023-12-20T11:11:42;100428.84;;;7.84;100.00
32131;BME280;18639;50.716;7.086;2023-12-20T11:14:27;100404.41;;;7.75;100.00
32131;BME280;18639;50.716;7.086;2023-12-20T11:17:10;100443.16;;;7.89;100.00
32131;BME280;18639;50.716;7.086;2023-12-20T11:22:27;100433.81;;;7.87;100.00
32131;BME280;18639;50.716;7.086;2023-12-20T11:24:53;100433.19;;;7.99;100.00
32131;BME280;18639;50.716;7.086;2023-12-20T11:27:19;100424.38;;;7.87;100.00
32131;BME280;18639;50.716;7.086;2023-12-20T11:29:52;100445.41;;;7.95;100.00
32131;BME280;18639;50.716;7.086;2023-12-20T11:34:50;100410.09;;;7.82;100.00
32131;BME280;18639;50.716;7.086;2023-12-20T11:37:16;100436.91;;;7.93;100.00
32131;BME280;18639;50.716;7.086;2023-12-20T11:39:43;100441.16;;;7.94;100.00
32131;BME280;18639;50.716;7.086;2023-12-20T11:42:09;100448.78;;;7.96;100.00
32131;BME280;18639;50.716;7.086;2023-12-20T11:44:36;100462.41;;;7.98;100.00
32131;BME280;18639;50.716;7.086;2023-12-20T11:47:01;100436.41;;;7.87;100.00
32131;BME280;18639;50.716;7.086;2023-12-20T11:49:27;100412.31;;;7.72;100.00
32131;BME280;18639;50.716;7.086;2023-12-20T11:51:54;100428.75;;;7.85;100.00
32131;BME280;18639;50.716;7.086;2023-12-20T11:54:19;100429.69;;;7.84;100.00
32131;BME280;18639;50.716;7.086;2023-12-20T11:56:46;100404.41;;;7.75;100.00
32131;BME280;18639;50.716;7.086;2023-12-20T11:59:11;100436.00;;;7.94;100.00
32131;BME280;18639;50.716;7.086;2023-12-20T12:01:37;100413.06;;;7.74;100.00
32131;BME280;18639;50.716;7.086;2023-12-20T12:04:06;100357.09;;;7.46;100.00
32131;BME280;18639;50.716;7.086;2023-12-20T12:06:32;100376.53;;;7.68;100.00
32131;BME280;18639;50.716;7.086;2023-12-20T12:08:58;100355.63;;;7.58;100.00
32131;BME280;18639;50.716;7.086;2023-12-20T12:11:23;100420.09;;;8.03;100.00
32131;BME280;18639;50.716;7.086;2023-12-20T12:13:49;100400.84;;;8.11;100.00
32131;BME280;18639;50.716;7.086;2023-12-20T12:16:18;100405.16;;;8.26;100.00
32131;BME280;18639;50.716;7.086;2023-12-20T12:18:46;100355.34;;;7.95;100.00
32131;BME280;18639;50.716;7.086;2023-12-20T12:21:19;100393.81;;;8.30;100.00
32131;BME280;18639;50.716;7.086;2023-12-20T12:23:45;100398.06;;;8.31;100.00
32131;BME280;18639;50.716;7.086;2023-12-20T12:26:10;100369.28;;;8.23;100.00
32131;BME280;18639;50.716;7.086;2023-12-20T12:28:37;100403.59;;;8.39;100.00
32131;BME280;18639;50.716;7.086;2023-12-20T12:31:04;100375.94;;;8.27;100.00
32131;BME280;18639;50.716;7.086;2023-12-20T12:33:30;100365.22;;;8.19;100.00
32131;BME280;18639;50.716;7.086;2023-12-20T12:35:55;100376.19;;;8.22;100.00
32131;BME280;18639;50.716;7.086;2023-12-20T12:38:21;100329.25;;;8.01;100.00
32131;BME280;18639;50.716;7.086;2023-12-20T12:40:47;100361.09;;;8.16;100.00
32131;BME280;18639;50.716;7.086;2023-12-20T12:43:12;100292.78;;;7.79;100.00
32131;BME280;18639;50.716;7.086;2023-12-20T12:45:38;100357.34;;;8.22;100.00
32131;BME280;18639;50.716;7.086;2023-12-20T12:48:03;100304.22;;;7.89;100.00
32131;BME280;18639;50.716;7.086;2023-12-20T12:50:30;100316.97;;;7.91;100.00